EmailTwitter


Observations de surface / France / LFBP (07610)

Régions: Québec | Canada | États-Unis | Europe | France | UK | Ailleurs
Station
Affichage
Infos & localisation pour LFBP (07610) | Aide pour décoder les METARs

Observations prises le 2018-06-18 à 20H30 UTC à PONT-LONG-UZEIN/, FR (LFBP)

Etat du ciel: partiellement nuageux.

Température: 18.0 Celsius

Point de rosée: 16.0 Celsius

Humidité relative: 88%

Indice Humidex: 23.

Vents: Nord-ouest à 13 km/h ou 7 noeuds.

Pression au niveau moyen de la mer: 102.60 kilopascals.

Visibilité horizontale: 6.21 milles terrestres ou 9.94 kilomètres.

Hauteur du plafond: 2012 mètres ( 6600 pieds ).

Observation METAR:

LFBP 182030Z AUTO 31007KT 9999 FEW012 BKN066 18/16 Q1026 TEMPO 4000 DZ BKN014=